ZYTX/SHE METAR and TAF weather

Enter ICAO airport designator
Station Type Date Time Source
ZYTX METAR 2022/06/26 09:00 UTC NOAA

ZYTX 260900Z VRB01MPS CAVOK 30/18 Q1004 NOSIG


Station Type Date Time Source
ZYTX Decoded METAR 2022/06/26 09:00 UTC NOAA

Shenyang / Taokian, China (ZYTX) 41-48N 123-24E
Jun 26, 2022 - 05:00 AM EDT / 2022.06.26 0900 UTC
Wind: Variable at 2 MPH (2 KT):0
Visibility: greater than 7 mile(s):0
Temperature: 86 F (30 C)
Dew Point: 64 F (18 C)
Relative Humidity: 48%
Pressure (altimeter): 29.65 in. Hg (1004 hPa)
ob: ZYTX 260900Z VRB01MPS CAVOK 30/18 Q1004 NOSIG
cycle: 9

Station Type Date Time Source
ZYTX TAF 2022/06/26 06:03 UTC NOAA

TAF ZYTX 260303Z 2606/2706 02003MPS 6000 SCT030 TX29/2606Z TN17/2621Z

Example: see airport list